Robbins, CA (95676)

5:53 PM PST on November 24, 2014 (GMT -0800)
Arboga, CA | Change Station
CLOSE
Current Station
Personal Weather Station
Location: Olivehurst, CA
Elevation: 49 ft
Nearby Weather Stations
Active Advisory: Special Statement

Elev 49 ft 39.05 °N, 121.58 °W | Updated 11 minutes ago

Partly Cloudy
Partly Cloudy
52.5 °F
Feels Like 52.5 °F
N
0.0
Wind Variable Wind from East

Today
High -- | Low -- °F
--% Chance of Precip.
Yesterday
High -- | Low -- °F
Precip. -- in
6:59 AM 4:47 PM
Waxing Crescent, 8% visible
Pressure 30.33 in
Visibility 10.0 miles
Clouds Scattered Clouds 25000 ft
Dew Point 44 °F
Humidity 74%
Rainfall 0.00 in
Snow Depth Not available.
UV 0 out of 12
Pollen 2.20 out of 12
Air Quality Not available.
Flu Activity Not available.
METAR KSMF 250053Z 00000KT 10SM SCT250 14/06 A3033 RMK AO2 SLP271 T01440056

More Conditions Fewer Conditions

Pressure 30.33 in
Visibility 10.0 miles
Clouds Scattered Clouds 25000 ft
Dew Point 44 °F
Humidity 74%
Rainfall 0.00 in
Snow Depth Not available.
UV 0 out of 12
Pollen 2.20 out of 12
Air Quality Not available.
Flu Activity Not available.
METAR KSMF 250053Z 00000KT 10SM SCT250 14/06 A3033 RMK AO2 SLP271 T01440056

More Conditions Fewer Conditions

10-Day Weather Forecast

Almanac

Astronomy

Nov. 24, 2014 Rise Set
Actual Time
Civil Twilight
Nautical Twilight
Astronomical Twilight
Moon
Length of Visible Light
Length of Day
Tomorrow will be .
, % of the Moon is Illuminated

Today's Extremes

State Highs State Lows

Community

WunderPhotos

Upload Photos

1,773,459 photos uploaded!

WunderBlogs® & News

Nearby

Air Quality

  Air Quality AQ Index Pollutant
Not available.

Snow Depth

Station Depth Elevation

Earthquake Activity

City Distance Mag. Time & Date
Minimum magnitude displayed is 2.5.

Coastal Water Temperatures

Place Temperature

Nearby Weather Stations